createdAt,value
2019-02-25T00:00:59.433Z,65.00
2019-02-25T00:03:28.823Z,64.70
2019-02-25T00:05:58.276Z,64.70
2019-02-25T00:08:36.024Z,64.60
2019-02-25T00:11:05.799Z,64.60
2019-02-25T00:13:35.066Z,64.60
2019-02-25T00:16:04.954Z,64.50
2019-02-25T00:18:34.915Z,64.70
2019-02-25T00:21:04.388Z,64.50
2019-02-25T00:23:33.930Z,64.50
2019-02-25T00:26:03.314Z,64.50
2019-02-25T00:28:32.535Z,64.60
2019-02-25T00:31:02.441Z,64.50
2019-02-25T00:33:31.704Z,64.50
2019-02-25T00:36:00.909Z,64.40
2019-02-25T00:38:41.211Z,64.40
2019-02-25T00:41:10.553Z,64.40
2019-02-25T00:43:40.040Z,64.20
2019-02-25T00:46:10.276Z,64.20
2019-02-25T00:48:39.903Z,64.30
2019-02-25T00:51:15.643Z,64.20
2019-02-25T00:53:45.670Z,64.30
2019-02-25T00:56:15.075Z,64.30
2019-02-25T00:58:44.337Z,64.40
2019-02-25T01:01:16.083Z,64.40
2019-02-25T01:03:48.293Z,64.30
2019-02-25T01:06:18.970Z,64.40
2019-02-25T01:08:48.492Z,64.40
2019-02-25T01:11:18.090Z,64.30
2019-02-25T01:13:47.435Z,64.50
2019-02-25T01:16:17.704Z,64.50
2019-02-25T01:18:47.001Z,64.70
2019-02-25T01:21:16.505Z,64.70
2019-02-25T01:23:46.075Z,64.80
2019-02-25T01:26:17.199Z,64.80
2019-02-25T01:28:46.469Z,64.80
2019-02-25T01:31:15.835Z,64.80
2019-02-25T01:33:45.419Z,64.70
2019-02-25T01:36:14.606Z,64.60
2019-02-25T01:39:06.258Z,64.60
2019-02-25T01:41:35.906Z,64.80
2019-02-25T01:44:05.585Z,64.70
2019-02-25T01:46:34.829Z,64.90
2019-02-25T01:49:04.118Z,65.00
2019-02-25T01:51:36.555Z,65.10
2019-02-25T01:54:06.280Z,65.20
2019-02-25T01:56:35.440Z,65.20
2019-02-25T01:59:04.804Z,65.30
2019-02-25T02:01:34.072Z,65.50
2019-02-25T02:04:03.394Z,65.50
2019-02-25T02:06:32.867Z,65.50
2019-02-25T02:09:02.279Z,65.70
2019-02-25T02:11:31.734Z,65.70
2019-02-25T02:14:01.067Z,65.60
2019-02-25T02:16:32.079Z,66.30
2019-02-25T02:19:02.514Z,65.30
2019-02-25T02:21:31.685Z,65.30
2019-02-25T02:24:01.116Z,65.10
2019-02-25T02:26:30.791Z,65.10
2019-02-25T02:29:00.168Z,65.00
2019-02-25T02:31:32.513Z,65.20
2019-02-25T02:34:01.711Z,65.20
2019-02-25T02:36:31.513Z,65.20
2019-02-25T02:39:00.734Z,65.40
2019-02-25T02:41:31.623Z,65.30
2019-02-25T02:44:00.744Z,65.40
2019-02-25T02:47:06.791Z,65.40
2019-02-25T02:49:35.975Z,65.60
2019-02-25T02:52:05.491Z,65.50
2019-02-25T02:54:36.404Z,65.60
2019-02-25T02:57:08.797Z,65.80
2019-02-25T02:59:38.317Z,65.80
2019-02-25T03:02:07.652Z,65.80
2019-02-25T03:04:37.021Z,65.70
2019-02-25T03:07:06.594Z,65.80
2019-02-25T03:09:35.893Z,65.90
2019-02-25T03:12:05.180Z,66.00
2019-02-25T03:14:35.220Z,65.90
2019-02-25T03:17:10.540Z,65.90
2019-02-25T03:19:39.742Z,66.00
2019-02-25T03:22:09.080Z,66.00
2019-02-25T03:24:38.178Z,66.00
2019-02-25T03:27:08.098Z,66.00
2019-02-25T03:29:37.182Z,66.00
2019-02-25T03:32:06.539Z,66.00
2019-02-25T03:34:42.993Z,66.00
2019-02-25T03:37:12.172Z,66.00
2019-02-25T03:39:41.370Z,65.90
2019-02-25T03:42:10.649Z,66.00
2019-02-25T03:44:39.879Z,65.90
2019-02-25T03:47:09.126Z,65.90
2019-02-25T03:49:40.649Z,65.90
2019-02-25T03:52:10.410Z,65.90
2019-02-25T03:54:39.939Z,66.50
2019-02-25T03:57:09.343Z,65.70
2019-02-25T03:59:38.564Z,65.60
2019-02-25T04:02:08.032Z,65.40
2019-02-25T04:04:37.712Z,65.50
2019-02-25T04:07:07.028Z,65.20
2019-02-25T04:09:36.231Z,65.20
2019-02-25T04:12:05.380Z,65.30
2019-02-25T04:14:34.842Z,65.10
2019-02-25T04:17:04.232Z,65.30
2019-02-25T04:19:33.446Z,65.20
2019-02-25T04:22:02.567Z,65.30
2019-02-25T04:24:32.023Z,65.40
2019-02-25T04:27:01.271Z,65.50
2019-02-25T04:29:30.521Z,65.60
2019-02-25T04:31:59.821Z,65.60
2019-02-25T04:34:29.229Z,65.70
2019-02-25T04:36:58.482Z,65.90
2019-02-25T04:39:27.644Z,65.90
2019-02-25T04:41:56.782Z,65.90
2019-02-25T04:44:26.044Z,65.90
2019-02-25T04:46:55.403Z,66.10
2019-02-25T04:49:24.808Z,66.10
2019-02-25T04:51:54.371Z,66.20
2019-02-25T04:54:23.873Z,66.20
2019-02-25T04:56:53.041Z,66.20
2019-02-25T04:59:22.296Z,66.20
2019-02-25T05:01:58.816Z,66.20
2019-02-25T05:04:28.051Z,66.30
2019-02-25T05:06:57.314Z,66.20
2019-02-25T05:09:27.199Z,66.20
2019-02-25T05:11:56.577Z,66.20
2019-02-25T05:14:32.516Z,66.20
2019-02-25T05:17:01.652Z,66.30
2019-02-25T05:19:31.125Z,66.20
2019-02-25T05:22:00.904Z,66.20
2019-02-25T05:24:30.082Z,66.30
2019-02-25T05:27:00.372Z,66.30
2019-02-25T05:29:37.030Z,66.30
2019-02-25T05:32:07.251Z,66.30
2019-02-25T05:34:36.841Z,66.40
2019-02-25T05:37:06.584Z,66.30
2019-02-25T05:39:36.352Z,66.30
2019-02-25T05:42:05.895Z,66.30
2019-02-25T05:44:35.019Z,66.30
2019-02-25T05:47:04.233Z,66.40
2019-02-25T05:49:35.026Z,66.40
2019-02-25T05:52:04.687Z,66.40
2019-02-25T05:54:34.228Z,66.40
2019-02-25T05:57:03.521Z,67.20
2019-02-25T05:59:32.763Z,66.60
2019-02-25T06:02:01.866Z,66.60
2019-02-25T06:04:31.409Z,66.60
2019-02-25T06:07:04.747Z,66.60
2019-02-25T06:09:35.380Z,66.70
2019-02-25T06:12:04.727Z,66.60
2019-02-25T06:14:34.060Z,66.70
2019-02-25T06:17:03.429Z,66.80
2019-02-25T06:19:32.559Z,66.80
2019-02-25T06:22:01.896Z,67.60
2019-02-25T06:24:31.496Z,66.80
2019-02-25T06:27:00.896Z,66.80
2019-02-25T06:29:30.628Z,66.90
2019-02-25T06:32:01.225Z,66.80
2019-02-25T06:34:30.805Z,67.10
2019-02-25T06:37:02.538Z,67.00
2019-02-25T06:39:31.995Z,67.10
2019-02-25T06:42:01.971Z,67.00
2019-02-25T06:44:33.257Z,67.10
2019-02-25T06:48:21.888Z,67.20
2019-02-25T06:50:51.297Z,67.30
2019-02-25T06:53:21.673Z,67.20
2019-02-25T06:55:50.955Z,67.30
2019-02-25T06:58:20.110Z,67.20
2019-02-25T07:00:49.710Z,67.20
2019-02-25T07:03:19.023Z,67.20
2019-02-25T07:06:20.244Z,67.30
2019-02-25T07:09:12.543Z,67.30
2019-02-25T07:12:38.142Z,67.00
2019-02-25T07:15:26.049Z,66.90
2019-02-25T07:18:11.203Z,66.90
2019-02-25T07:20:47.427Z,66.80
2019-02-25T07:27:37.313Z,66.90
2019-02-25T07:30:31.528Z,66.70
2019-02-25T07:33:25.316Z,66.70
2019-02-25T07:41:05.913Z,66.60
2019-02-25T07:43:50.726Z,66.50
2019-02-25T07:46:42.201Z,66.40
2019-02-25T07:49:39.871Z,66.30
2019-02-25T07:59:39.940Z,66.30
2019-02-25T08:03:07.435Z,66.30
2019-02-25T08:05:45.251Z,66.10
2019-02-25T08:08:36.010Z,66.00
2019-02-25T08:11:44.437Z,66.00
2019-02-25T08:14:35.520Z,66.10
2019-02-25T08:17:47.340Z,66.00
2019-02-25T08:21:41.079Z,66.10
2019-02-25T08:35:51.170Z,66.40
2019-02-25T08:39:41.204Z,66.40
2019-02-25T08:42:49.617Z,66.50
2019-02-25T08:45:57.733Z,66.60
2019-02-25T08:48:32.992Z,66.60
2019-02-25T08:51:05.782Z,66.50
2019-02-25T08:58:04.127Z,66.60
2019-02-25T09:03:26.703Z,66.40
2019-02-25T09:05:58.695Z,66.20
2019-02-25T09:08:35.687Z,66.00
2019-02-25T09:11:14.142Z,65.90
2019-02-25T09:13:43.392Z,65.90
2019-02-25T09:16:36.150Z,65.90
2019-02-25T09:19:05.989Z,65.90
2019-02-25T09:21:38.580Z,65.70
2019-02-25T09:24:08.398Z,65.40
2019-02-25T09:26:39.917Z,65.30
2019-02-25T09:29:57.145Z,65.20
2019-02-25T09:39:17.647Z,64.90
2019-02-25T09:41:46.944Z,64.70
2019-02-25T09:44:31.055Z,64.50
2019-02-25T09:47:00.052Z,64.20
2019-02-25T09:53:09.235Z,63.90
2019-02-25T09:55:42.769Z,63.90
2019-02-25T10:00:47.139Z,62.50
2019-02-25T10:03:16.888Z,62.40
2019-02-25T10:05:50.120Z,62.30
2019-02-25T10:08:19.414Z,62.50
2019-02-25T10:10:56.129Z,62.30
2019-02-25T10:13:38.514Z,62.40
2019-02-25T10:16:08.102Z,62.30
2019-02-25T10:18:37.124Z,62.30
2019-02-25T10:21:06.089Z,62.50
2019-02-25T10:23:35.287Z,62.30
2019-02-25T10:26:08.882Z,62.50
2019-02-25T10:28:38.205Z,62.50
2019-02-25T10:37:41.212Z,62.40
2019-02-25T10:40:13.230Z,62.50
2019-02-25T10:42:44.074Z,62.50
2019-02-25T10:45:14.997Z,62.40
2019-02-25T10:47:48.992Z,62.50
2019-02-25T10:50:18.450Z,62.40
2019-02-25T10:52:49.393Z,62.40
2019-02-25T10:55:22.414Z,62.30
2019-02-25T10:57:52.865Z,62.10
2019-02-25T11:00:22.586Z,61.90
2019-02-25T11:02:55.880Z,61.80
2019-02-25T11:05:27.289Z,61.70
2019-02-25T11:07:55.862Z,61.70
2019-02-25T11:10:31.132Z,61.70
2019-02-25T11:13:02.177Z,61.80
2019-02-25T11:15:37.463Z,62.00
2019-02-25T11:18:08.179Z,61.90
2019-02-25T11:20:37.819Z,62.00
2019-02-25T11:23:09.959Z,61.90
2019-02-25T11:25:57.982Z,61.90
2019-02-25T11:28:28.395Z,61.90
2019-02-25T11:30:57.917Z,61.70
2019-02-25T11:33:29.635Z,61.70
2019-02-25T11:36:05.244Z,61.60
2019-02-25T11:38:39.798Z,61.50
2019-02-25T11:44:57.062Z,61.60
2019-02-25T11:47:26.962Z,61.60
2019-02-25T11:49:56.195Z,61.60
2019-02-25T11:52:33.097Z,61.50
2019-02-25T11:55:29.628Z,61.30
2019-02-25T11:57:59.079Z,61.50
2019-02-25T12:00:39.770Z,60.80
2019-02-25T12:04:11.155Z,60.90
2019-02-25T12:14:33.667Z,60.90
2019-02-25T12:17:02.707Z,60.80
2019-02-25T12:19:34.860Z,60.40
2019-02-25T12:22:36.959Z,60.40
2019-02-25T12:25:39.743Z,60.50
2019-02-25T12:31:30.576Z,60.50
2019-02-25T12:37:40.937Z,60.60
2019-02-25T12:43:51.316Z,60.40
2019-02-25T12:50:02.435Z,60.50
2019-02-25T12:53:00.374Z,60.40
2019-02-25T12:55:52.908Z,60.30
2019-02-25T13:03:55.097Z,60.50
2019-02-25T13:06:24.333Z,60.60
2019-02-25T13:08:55.078Z,60.20
2019-02-25T13:11:30.398Z,60.20
2019-02-25T13:14:06.176Z,60.20
2019-02-25T13:26:32.256Z,60.10
2019-02-25T13:29:02.825Z,60.20
2019-02-25T13:31:35.131Z,60.00
2019-02-25T13:37:44.516Z,59.90
2019-02-25T13:40:13.870Z,59.40
2019-02-25T13:42:49.402Z,59.40
2019-02-25T13:45:18.975Z,59.50
2019-02-25T13:47:48.789Z,59.50
2019-02-25T13:50:20.209Z,59.50
2019-02-25T13:53:00.699Z,59.60
2019-02-25T13:55:29.961Z,59.40
2019-02-25T13:57:59.383Z,59.40
2019-02-25T14:00:28.837Z,59.30
2019-02-25T14:02:58.253Z,59.30
2019-02-25T14:09:10.567Z,59.30
2019-02-25T14:11:44.907Z,59.20
2019-02-25T14:20:30.695Z,58.80
2019-02-25T14:23:00.657Z,58.60
2019-02-25T14:28:31.523Z,58.40
2019-02-25T14:31:12.044Z,58.10
2019-02-25T15:39:06.371Z,57.70
2019-02-25T15:45:14.009Z,57.90
2019-02-25T15:47:44.793Z,57.70
2019-02-25T15:53:29.952Z,57.70
2019-02-25T15:56:05.907Z,57.00
2019-02-25T16:17:37.677Z,58.50
2019-02-25T16:20:09.338Z,58.30
2019-02-25T17:13:57.303Z,58.40
2019-02-25T17:16:48.743Z,58.40
2019-02-25T17:19:19.623Z,58.60
2019-02-25T17:22:34.697Z,58.50
2019-02-25T17:25:18.129Z,58.70
2019-02-25T17:27:49.156Z,58.80
2019-02-25T17:30:29.981Z,58.80
2019-02-25T17:33:08.084Z,58.90
2019-02-25T17:35:38.353Z,58.90
2019-02-25T17:38:14.638Z,58.90
2019-02-25T17:40:47.904Z,59.10
2019-02-25T17:43:25.212Z,59.20
2019-02-25T17:45:56.297Z,59.20
2019-02-25T17:48:51.383Z,59.30
2019-02-25T17:51:57.310Z,59.40
2019-02-25T17:54:32.977Z,59.60
2019-02-25T17:57:07.068Z,59.70
2019-02-25T17:59:46.370Z,59.70
2019-02-25T18:02:14.687Z,59.80
2019-02-25T18:04:47.453Z,59.70
2019-02-25T18:07:18.238Z,59.90
2019-02-25T18:09:49.221Z,60.00
2019-02-25T18:12:20.706Z,60.10
2019-02-25T18:14:50.948Z,60.10
2019-02-25T18:17:26.132Z,60.30
2019-02-25T18:19:56.753Z,60.30
2019-02-25T18:22:26.643Z,60.30
2019-02-25T18:25:00.249Z,60.30
2019-02-25T18:27:30.300Z,60.30
2019-02-25T18:30:01.041Z,60.30
2019-02-25T18:32:32.713Z,60.30
2019-02-25T18:35:02.663Z,60.30
2019-02-25T18:37:32.176Z,60.30
2019-02-25T18:40:01.695Z,60.40
2019-02-25T18:42:32.041Z,60.50
2019-02-25T18:45:08.282Z,60.40
2019-02-25T18:51:32.865Z,60.60
2019-02-25T18:54:07.265Z,60.60
2019-02-25T18:56:38.667Z,60.60
2019-02-25T18:59:17.383Z,60.70
2019-02-25T19:02:05.723Z,60.70
2019-02-25T19:04:39.205Z,60.70
2019-02-25T19:07:10.376Z,60.90
2019-02-25T19:09:43.105Z,60.90
2019-02-25T19:12:14.255Z,61.00
2019-02-25T19:14:55.744Z,61.20
2019-02-25T19:17:25.417Z,61.40
2019-02-25T19:19:57.081Z,62.40
2019-02-25T19:22:28.033Z,62.40
2019-02-25T19:25:15.140Z,62.30
2019-02-25T19:27:42.188Z,62.40
2019-02-25T19:30:19.759Z,62.50
2019-02-25T19:32:50.548Z,62.60
2019-02-25T19:35:28.704Z,62.70
2019-02-25T19:38:05.112Z,62.80
2019-02-25T19:40:33.063Z,62.90
2019-02-25T19:43:04.232Z,63.00
2019-02-25T19:46:14.471Z,63.10
2019-02-25T19:49:26.403Z,63.10
2019-02-25T19:51:56.657Z,63.40
2019-02-25T19:54:26.822Z,63.40
2019-02-25T19:56:57.966Z,63.50
2019-02-25T19:59:30.884Z,64.30
2019-02-25T20:02:00.236Z,63.70
2019-02-25T20:04:40.051Z,63.70
2019-02-25T20:07:09.182Z,63.70
2019-02-25T20:09:47.000Z,63.70
2019-02-25T20:12:20.423Z,63.70
2019-02-25T20:15:08.987Z,63.80
2019-02-25T20:17:37.709Z,63.80
2019-02-25T20:20:10.225Z,63.90
2019-02-25T20:22:42.276Z,63.90
2019-02-25T20:25:12.598Z,64.00
2019-02-25T20:27:46.223Z,64.10
2019-02-25T20:30:19.042Z,64.10
2019-02-25T20:32:50.661Z,64.30
2019-02-25T20:35:22.002Z,64.60
2019-02-25T20:37:53.729Z,64.70
2019-02-25T20:40:24.168Z,64.90
2019-02-25T20:42:58.213Z,64.90
2019-02-25T20:45:28.852Z,65.00
2019-02-25T20:47:59.685Z,65.10
2019-02-25T20:50:34.739Z,65.30
2019-02-25T20:53:06.499Z,65.30
2019-02-25T20:55:36.367Z,65.30
2019-02-25T20:58:17.041Z,65.40
2019-02-25T21:00:48.793Z,65.50
2019-02-25T21:03:18.932Z,65.50
2019-02-25T21:05:48.779Z,65.50
2019-02-25T21:08:19.150Z,65.50
2019-02-25T21:10:50.943Z,65.50
2019-02-25T21:13:22.069Z,65.60
2019-02-25T21:15:50.786Z,65.40
2019-02-25T21:18:24.507Z,65.50
2019-02-25T21:20:54.971Z,65.80
2019-02-25T21:23:25.304Z,65.70
2019-02-25T21:25:57.504Z,65.90
2019-02-25T21:28:28.998Z,65.90
2019-02-25T21:31:02.620Z,66.00
2019-02-25T21:33:31.997Z,66.20
2019-02-25T21:36:01.017Z,66.00
2019-02-25T21:38:30.431Z,66.00
2019-02-25T21:40:59.576Z,66.00
2019-02-25T21:43:29.093Z,66.10
2019-02-25T21:46:01.289Z,66.20
2019-02-25T21:48:31.841Z,66.00
2019-02-25T21:51:02.407Z,66.20
2019-02-25T21:53:30.998Z,66.00
2019-02-25T21:56:04.158Z,66.20
2019-02-25T21:58:31.108Z,66.20
2019-02-25T22:01:00.801Z,66.30
2019-02-25T22:03:30.122Z,66.30
2019-02-25T22:06:00.850Z,66.40
2019-02-25T22:08:31.893Z,66.40
2019-02-25T22:11:12.433Z,66.50
2019-02-25T22:13:34.014Z,66.60
2019-02-25T22:16:03.931Z,66.80
2019-02-25T22:18:34.621Z,66.90
2019-02-25T22:21:11.809Z,67.00
2019-02-25T22:23:46.739Z,67.00
2019-02-25T22:26:15.763Z,67.10
2019-02-25T22:28:45.078Z,67.30
2019-02-25T22:31:18.143Z,67.20
2019-02-25T22:33:47.350Z,67.30
2019-02-25T22:36:16.405Z,67.40
2019-02-25T22:38:46.056Z,67.40
2019-02-25T22:41:16.737Z,67.40
2019-02-25T22:43:48.167Z,67.40
2019-02-25T22:46:16.976Z,67.40
2019-02-25T22:48:47.300Z,67.40
2019-02-25T22:51:22.209Z,67.50
2019-02-25T22:53:51.659Z,67.60
2019-02-25T22:56:23.286Z,67.60
2019-02-25T22:59:02.788Z,67.50
2019-02-25T23:01:32.727Z,67.80
2019-02-25T23:04:01.782Z,67.80
2019-02-25T23:06:31.142Z,67.90
2019-02-25T23:09:00.158Z,68.00
2019-02-25T23:11:29.540Z,68.00
2019-02-25T23:13:58.610Z,68.10
2019-02-25T23:16:28.067Z,68.10
2019-02-25T23:18:57.160Z,68.20
2019-02-25T23:24:05.027Z,68.40
2019-02-25T23:26:34.103Z,68.30
2019-02-25T23:29:03.689Z,68.40
2019-02-25T23:31:33.163Z,68.40
2019-02-25T23:34:13.179Z,69.20
2019-02-25T23:36:44.814Z,68.50
2019-02-25T23:39:17.057Z,68.60
2019-02-25T23:41:46.310Z,68.50
2019-02-25T23:44:17.335Z,68.40
2019-02-25T23:46:55.231Z,68.60
2019-02-25T23:49:27.303Z,68.40
2019-02-25T23:51:53.865Z,68.40
2019-02-25T23:54:23.246Z,68.40
2019-02-25T23:56:55.098Z,68.40
2019-02-25T23:59:26.605Z,68.60
